Son Servera, Spain
Current Conditions -  °F | °C
As of 7:30 AM on Friday 31 Oct 2014 (Local Time) from LEPA Reporting Station
Few Clouds Few Clouds  
Wind Chill: 55°   Ceiling: Unl
Heat Index: 55°   Visibility: 6mi
Dew Point: 55°   Wind: 3mph
Humidity: 100%   Direction: 60°ENE
Pressure: 30.21"   Gusts: NA
Location:  39.62°N, 3.36°E
Report Text: LEPA 310630Z 06003KT 9999 FEW014 13/13 Q1023 NOSIG
Loading
Personal Weather Stations






























Interactive Weather Map
Tropical Storm Tracking
New forecast layout! Learn more

10-Day Weather Forecast

Advertisements
Track Severe Weather on mobile